Time;durP1;ratioP1;P1;durP2;ratioP2;P2;SDS_P1;SDS_P2;PMS_P1;PMS_P2;Temp;Humidity;BMP_temperature;BMP_pressure;BME280_temperature;BME280_humidity;BME280_pressure;Samples;Min_cycle;Max_cycle;Signal;HPM_P1;HPM_P2
2023/08/18 00:01:25;;;;;;;0.10;0.10;;;17.40;99.90;;;;;;5028170;28;20026;-57
2023/08/18 00:03:51;;;;;;;5.05;1.05;;;17.30;99.90;;;;;;5031522;28;20025;-58
2023/08/18 00:06:16;;;;;;;1.20;1.20;;;17.30;99.90;;;;;;5032152;28;20032;-56
2023/08/18 00:08:42;;;;;;;0.10;0.10;;;17.30;99.90;;;;;;5030453;28;20031;-56
2023/08/18 00:11:08;;;;;;;0.15;0.15;;;17.30;99.90;;;;;;5030642;28;20478;-57
2023/08/18 00:13:34;;;;;;;0.10;0.10;;;17.20;99.90;;;;;;5032646;28;20028;-55
2023/08/18 00:15:59;;;;;;;0.10;0.10;;;17.20;99.90;;;;;;5031693;28;20018;-58
2023/08/18 00:18:25;;;;;;;0.10;0.10;;;17.10;99.90;;;;;;5030458;28;20112;-57
2023/08/18 00:20:51;;;;;;;0.00;0.00;;;17.10;99.90;;;;;;5028610;28;20122;-58
2023/08/18 00:23:17;;;;;;;0.10;0.10;;;17.00;99.90;;;;;;5029286;28;20025;-56
2023/08/18 00:25:42;;;;;;;0.45;0.45;;;17.00;99.90;;;;;;5028557;28;20026;-58
2023/08/18 00:28:08;;;;;;;0.10;0.10;;;17.00;99.90;;;;;;5026898;28;20116;-57
2023/08/18 00:30:34;;;;;;;0.10;0.10;;;17.00;99.90;;;;;;5022536;28;20038;-55
2023/08/18 00:33:00;;;;;;;0.63;0.63;;;17.00;99.90;;;;;;5024614;28;20025;-58
2023/08/18 00:35:26;;;;;;;0.10;0.10;;;17.10;99.90;;;;;;5023207;28;20040;-57
2023/08/18 00:37:52;;;;;;;0.10;0.10;;;17.10;99.90;;;;;;5025412;28;20501;-58
2023/08/18 00:40:17;;;;;;;0.10;0.10;;;17.10;99.90;;;;;;5024948;28;20089;-57
2023/08/18 00:42:43;;;;;;;0.10;0.10;;;17.20;99.90;;;;;;5027485;28;20040;-59
2023/08/18 00:45:09;;;;;;;0.10;0.10;;;17.20;99.90;;;;;;5026515;28;20422;-58
2023/08/18 00:47:37;;;;;;;1.10;0.98;;;17.20;99.90;;;;;;5027702;28;20032;-56
2023/08/18 00:50:04;;;;;;;0.10;0.10;;;17.20;99.90;;;;;;5025538;28;20567;-58
2023/08/18 00:52:30;;;;;;;0.10;0.10;;;17.20;99.90;;;;;;5026108;28;20038;-58
2023/08/18 00:54:57;;;;;;;0.10;0.10;;;17.20;99.90;;;;;;5028572;28;20032;-58
2023/08/18 00:57:22;;;;;;;0.00;0.00;;;17.20;99.90;;;;;;5027146;28;20137;-59
2023/08/18 00:59:49;;;;;;;0.10;0.10;;;17.20;99.90;;;;;;5029603;28;20025;-57
2023/08/18 01:02:17;;;;;;;0.10;0.10;;;17.10;99.90;;;;;;5030881;28;20056;-57
2023/08/18 01:04:42;;;;;;;0.10;0.10;;;17.10;99.90;;;;;;5026209;28;20039;-57
2023/08/18 01:07:08;;;;;;;0.52;0.52;;;17.10;99.90;;;;;;5024798;28;20604;-58
2023/08/18 01:09:34;;;;;;;0.10;0.10;;;17.10;99.90;;;;;;5032256;28;20037;-57
2023/08/18 01:12:20;;;;;;;0.10;0.10;;;17.10;99.90;;;;;;5030788;28;20028;-58
2023/08/18 01:15:11;;;;;;;0.08;0.08;;;17.00;99.90;;;;;;5035086;28;20057;-57
2023/08/18 01:17:40;;;;;;;;;;;17.00;99.90;;;;;;5026879;28;20029;-59
2023/08/18 01:20:06;;;;;;;0.10;0.10;;;17.00;99.90;;;;;;5022796;28;19924;-57
2023/08/18 01:22:35;;;;;;;0.10;0.10;;;17.00;99.90;;;;;;5026205;28;20517;-58
2023/08/18 01:25:01;;;;;;;0.20;0.20;;;16.90;99.90;;;;;;5029534;28;20041;-58
2023/08/18 01:27:31;;;;;;;0.10;0.10;;;16.90;99.90;;;;;;5026605;28;20024;-58
2023/08/18 01:29:57;;;;;;;0.10;0.10;;;16.90;99.90;;;;;;5025848;28;20030;-57
2023/08/18 01:32:28;;;;;;;0.55;0.15;;;16.90;99.90;;;;;;5026461;28;20017;-57
2023/08/18 01:34:55;;;;;;;0.10;0.10;;;16.90;99.90;;;;;;5031506;28;20090;-58
2023/08/18 01:37:21;;;;;;;0.10;0.10;;;16.90;99.90;;;;;;5035619;28;20040;-59
2023/08/18 01:39:49;;;;;;;0.10;0.10;;;17.00;99.90;;;;;;5032384;28;20037;-58
2023/08/18 01:42:15;;;;;;;0.10;0.10;;;16.90;99.90;;;;;;5031125;28;20021;-56
2023/08/18 01:44:41;;;;;;;0.20;0.20;;;16.90;99.90;;;;;;5018626;28;20025;-58
2023/08/18 01:47:06;;;;;;;0.10;0.10;;;16.90;99.90;;;;;;5027709;28;20387;-56
2023/08/18 01:49:32;;;;;;;0.32;0.32;;;17.00;99.90;;;;;;5019760;28;20080;-57
2023/08/18 01:51:57;;;;;;;0.10;0.10;;;17.00;99.90;;;;;;5020571;28;20033;-57
2023/08/18 01:54:23;;;;;;;165.63;143.75;;;16.90;99.90;;;;;;5021006;28;20037;-58
2023/08/18 01:56:48;;;;;;;1513.55;762.72;;;16.90;99.90;;;;;;5027383;28;20029;-58
2023/08/18 01:59:15;;;;;;;0.10;0.10;;;16.90;99.90;;;;;;5026704;28;20516;-58
2023/08/18 02:01:40;;;;;;;0.10;0.10;;;16.90;99.90;;;;;;5024180;28;20721;-57
2023/08/18 02:04:06;;;;;;;0.03;0.03;;;16.90;99.90;;;;;;5021078;28;20042;-58
2023/08/18 02:06:32;;;;;;;0.10;0.10;;;16.90;99.90;;;;;;5025190;28;20442;-55
2023/08/18 02:08:58;;;;;;;0.10;0.10;;;16.90;99.90;;;;;;5026150;28;20032;-57
2023/08/18 02:11:23;;;;;;;0.00;0.00;;;17.00;99.90;;;;;;5024174;28;20156;-56
2023/08/18 02:13:49;;;;;;;1.20;0.30;;;17.00;99.90;;;;;;5024259;28;20138;-58
2023/08/18 02:16:15;;;;;;;0.10;0.10;;;17.10;99.90;;;;;;5024064;28;20075;-55
2023/08/18 02:18:40;;;;;;;0.10;0.10;;;17.10;99.90;;;;;;5024160;28;20451;-56
2023/08/18 02:21:06;;;;;;;0.10;0.10;;;17.20;99.90;;;;;;5030743;28;20026;-57
2023/08/18 02:23:32;;;;;;;0.10;0.10;;;17.20;99.90;;;;;;5032179;28;20029;-55
2023/08/18 02:26:05;;;;;;;0.00;0.00;;;17.20;99.90;;;;;;5032505;28;20064;-56
2023/08/18 02:28:31;;;;;;;0.10;0.10;;;17.20;99.90;;;;;;5032728;28;20041;-56
2023/08/18 02:31:02;;;;;;;0.10;0.10;;;17.20;99.90;;;;;;5028081;28;20120;-58
2023/08/18 02:33:29;;;;;;;0.10;0.10;;;17.30;99.90;;;;;;5029020;28;20026;-58
2023/08/18 02:35:54;;;;;;;0.08;0.08;;;17.30;99.90;;;;;;5032144;28;20545;-59
2023/08/18 02:38:20;;;;;;;0.15;0.15;;;17.20;99.90;;;;;;5031457;28;20128;-58
2023/08/18 02:40:46;;;;;;;0.00;0.00;;;17.30;99.90;;;;;;5030734;28;20585;-56
2023/08/18 02:43:11;;;;;;;0.10;0.10;;;17.30;99.90;;;;;;5030005;28;20355;-57
2023/08/18 02:45:37;;;;;;;0.00;0.00;;;17.30;99.90;;;;;;5028973;28;20044;-57
2023/08/18 02:48:04;;;;;;;0.10;0.10;;;17.30;99.90;;;;;;5030663;28;20040;-57
2023/08/18 02:50:29;;;;;;;0.10;0.10;;;17.30;99.90;;;;;;5028474;28;20010;-56
2023/08/18 02:52:55;;;;;;;0.30;0.30;;;17.40;99.90;;;;;;5028598;28;20033;-58
2023/08/18 02:55:20;;;;;;;0.10;0.10;;;17.40;99.90;;;;;;5028147;28;20117;-58
2023/08/18 02:57:46;;;;;;;0.00;0.00;;;17.40;99.90;;;;;;5028847;28;20081;-58
2023/08/18 03:00:12;;;;;;;0.10;0.10;;;17.30;99.90;;;;;;5030647;28;20094;-57
2023/08/18 03:02:38;;;;;;;0.10;0.10;;;17.30;99.90;;;;;;5035539;28;20539;-57
2023/08/18 03:05:04;;;;;;;0.10;0.10;;;17.30;99.90;;;;;;5031759;28;20021;-56
2023/08/18 03:07:29;;;;;;;0.10;0.10;;;17.30;99.90;;;;;;5031318;28;20036;-57
2023/08/18 03:09:56;;;;;;;0.10;0.10;;;17.30;99.90;;;;;;5029971;28;20025;-57
2023/08/18 03:12:21;;;;;;;0.10;0.10;;;17.30;99.90;;;;;;5031686;28;20130;-57
2023/08/18 03:14:47;;;;;;;0.10;0.10;;;17.40;99.90;;;;;;5032964;28;20510;-58
2023/08/18 03:17:13;;;;;;;0.10;0.10;;;17.40;99.90;;;;;;5031691;28;20029;-57
2023/08/18 03:19:38;;;;;;;0.10;0.10;;;17.40;99.90;;;;;;5027698;28;20525;-56
2023/08/18 03:22:04;;;;;;;0.10;0.10;;;17.40;99.90;;;;;;5026839;28;20111;-57
2023/08/18 03:24:30;;;;;;;0.25;0.25;;;17.30;99.90;;;;;;5025691;28;20034;-57
2023/08/18 03:26:55;;;;;;;0.10;0.10;;;17.30;99.90;;;;;;5026240;28;20052;-59
2023/08/18 03:29:21;;;;;;;0.10;0.10;;;17.30;99.90;;;;;;5026335;28;20441;-55
2023/08/18 03:31:47;;;;;;;0.00;0.00;;;17.20;99.90;;;;;;5028559;28;20039;-57
2023/08/18 03:34:12;;;;;;;0.10;0.10;;;17.10;99.90;;;;;;5032764;28;20022;-57
2023/08/18 03:36:38;;;;;;;0.10;0.10;;;17.10;99.90;;;;;;5031638;28;20021;-57
2023/08/18 03:39:05;;;;;;;0.00;0.00;;;17.10;99.90;;;;;;5032472;28;20017;-57
2023/08/18 03:41:31;;;;;;;0.00;0.00;;;17.10;99.90;;;;;;5030636;28;20022;-58
2023/08/18 03:43:58;;;;;;;0.08;0.08;;;17.00;99.90;;;;;;5032156;28;20029;-58
2023/08/18 03:46:28;;;;;;;0.10;0.10;;;17.00;99.90;;;;;;5026835;28;20085;-58
2023/08/18 03:48:54;;;;;;;0.10;0.10;;;17.00;99.90;;;;;;5026744;28;20033;-58
2023/08/18 03:51:20;;;;;;;0.10;0.10;;;17.00;99.90;;;;;;5028866;28;20841;-57
2023/08/18 03:53:46;;;;;;;0.10;0.10;;;17.00;99.90;;;;;;5027106;28;20045;-56
2023/08/18 03:56:12;;;;;;;0.03;0.03;;;16.90;99.90;;;;;;5046175;28;20135;-58
2023/08/18 03:58:38;;;;;;;0.10;0.10;;;16.90;99.90;;;;;;5030988;28;20050;-57
2023/08/18 04:01:06;;;;;;;0.00;0.00;;;16.90;99.90;;;;;;5024939;28;20028;-57
2023/08/18 04:03:36;;;;;;;0.15;0.15;;;16.90;99.90;;;;;;5034306;28;20025;-56
2023/08/18 04:06:05;;;;;;;0.03;0.03;;;16.90;99.90;;;;;;5036401;28;20032;-55
2023/08/18 04:08:38;;;;;;;0.00;0.00;;;16.90;99.90;;;;;;5037236;28;20029;-58
2023/08/18 04:11:04;;;;;;;0.10;0.10;;;16.90;99.90;;;;;;5033032;28;20523;-57
2023/08/18 04:13:29;;;;;;;0.10;0.10;;;16.90;99.90;;;;;;5024728;28;20030;-57
2023/08/18 04:15:55;;;;;;;0.10;0.10;;;16.90;99.90;;;;;;5031080;28;20014;-58
2023/08/18 04:18:21;;;;;;;0.10;0.10;;;16.90;99.90;;;;;;5026212;28;20056;-57
2023/08/18 04:20:47;;;;;;;0.10;0.10;;;16.90;99.90;;;;;;5026301;28;20120;-57
2023/08/18 04:23:12;;;;;;;0.10;0.10;;;17.00;99.90;;;;;;5021854;28;20083;-57
2023/08/18 04:25:40;;;;;;;0.00;0.00;;;17.00;99.90;;;;;;5024986;28;20490;-58
2023/08/18 04:28:06;;;;;;;0.10;0.10;;;17.00;99.90;;;;;;5028145;28;20103;-57
2023/08/18 04:30:32;;;;;;;0.10;0.10;;;17.00;99.90;;;;;;5026653;28;20049;-58
2023/08/18 04:32:58;;;;;;;0.10;0.10;;;17.00;99.90;;;;;;5027367;28;20056;-57
2023/08/18 04:35:23;;;;;;;0.10;0.10;;;17.00;99.90;;;;;;5029536;28;20503;-58
2023/08/18 04:37:49;;;;;;;0.00;0.00;;;17.00;99.90;;;;;;5028508;28;20034;-59
2023/08/18 04:40:14;;;;;;;0.00;0.00;;;17.00;99.90;;;;;;5028225;28;20095;-57
2023/08/18 04:42:40;;;;;;;0.10;0.10;;;17.00;99.90;;;;;;5023387;28;20127;-58
2023/08/18 04:45:06;;;;;;;0.10;0.10;;;17.00;99.90;;;;;;5024676;28;20028;-57
2023/08/18 04:47:32;;;;;;;0.10;0.10;;;17.00;99.90;;;;;;5022242;28;20469;-57
2023/08/18 04:49:58;;;;;;;0.10;0.10;;;17.00;99.90;;;;;;5021486;28;20034;-59
2023/08/18 04:52:24;;;;;;;0.10;0.10;;;17.00;99.90;;;;;;5027502;28;20034;-58
2023/08/18 04:54:49;;;;;;;0.10;0.10;;;17.10;99.90;;;;;;5027441;28;20040;-57
2023/08/18 04:57:15;;;;;;;0.10;0.10;;;17.10;99.90;;;;;;5019598;28;20120;-58
2023/08/18 04:59:41;;;;;;;0.10;0.10;;;17.10;99.90;;;;;;5017962;28;20474;-56
2023/08/18 05:02:07;;;;;;;0.10;0.10;;;17.00;99.90;;;;;;5026311;28;20036;-56
2023/08/18 05:04:33;;;;;;;0.10;0.10;;;17.00;99.90;;;;;;5026000;28;20030;-56
2023/08/18 05:06:58;;;;;;;0.10;0.10;;;17.00;99.90;;;;;;5022996;28;20026;-59
2023/08/18 05:09:25;;;;;;;0.10;0.10;;;17.10;99.90;;;;;;5024253;28;20029;-57
2023/08/18 05:11:50;;;;;;;0.10;0.10;;;17.20;99.90;;;;;;5027333;28;20173;-58
2023/08/18 05:14:16;;;;;;;0.10;0.10;;;17.30;99.90;;;;;;5023996;28;20108;-58
2023/08/18 05:16:42;;;;;;;0.10;0.10;;;17.30;99.90;;;;;;5027812;28;20033;-57
2023/08/18 05:19:07;;;;;;;0.05;0.05;;;17.40;99.90;;;;;;5027649;28;20037;-57
2023/08/18 05:21:33;;;;;;;0.00;0.00;;;17.40;99.90;;;;;;5025798;28;20021;-58
2023/08/18 05:23:59;;;;;;;0.10;0.10;;;17.50;99.90;;;;;;5023665;28;20508;-59
2023/08/18 05:26:24;;;;;;;0.10;0.10;;;17.50;99.90;;;;;;5024382;28;20026;-59
2023/08/18 05:28:50;;;;;;;0.00;0.00;;;17.50;99.90;;;;;;5026024;28;20034;-58
2023/08/18 05:31:16;;;;;;;0.10;0.10;;;17.50;99.90;;;;;;5025508;28;20028;-59
2023/08/18 05:33:41;;;;;;;0.20;0.20;;;17.40;99.90;;;;;;5028305;28;20443;-60
2023/08/18 05:36:07;;;;;;;0.10;0.10;;;17.40;99.90;;;;;;5027965;28;20445;-58
2023/08/18 05:38:33;;;;;;;0.10;0.10;;;17.40;99.90;;;;;;5026420;28;20117;-60
2023/08/18 05:41:11;;;;;;;0.10;0.10;;;17.40;99.90;;;;;;5029153;28;20148;-59
2023/08/18 05:43:38;;;;;;;0.00;0.00;;;17.30;99.90;;;;;;5026491;28;20033;-60
2023/08/18 05:46:04;;;;;;;0.03;0.03;;;17.30;99.90;;;;;;5027129;28;20029;-59
2023/08/18 05:48:32;;;;;;;0.00;0.00;;;17.30;99.90;;;;;;5024042;28;20049;-60
2023/08/18 05:51:01;;;;;;;0.10;0.10;;;17.40;99.90;;;;;;5028858;28;20034;-59
2023/08/18 05:53:27;;;;;;;0.00;0.00;;;17.40;99.90;;;;;;5026140;28;20021;-60
2023/08/18 05:55:53;;;;;;;0.10;0.10;;;17.40;99.90;;;;;;5026112;28;20032;-60
2023/08/18 05:58:19;;;;;;;0.00;0.00;;;17.40;99.90;;;;;;5023211;28;20030;-61
2023/08/18 06:00:47;;;;;;;0.10;0.10;;;17.40;99.90;;;;;;5020145;28;20402;-59
2023/08/18 06:03:13;;;;;;;0.10;0.10;;;17.50;99.90;;;;;;5025441;28;20042;-58
2023/08/18 06:05:39;;;;;;;0.10;0.10;;;17.50;99.90;;;;;;5026123;28;20382;-59
2023/08/18 06:08:04;;;;;;;0.10;0.10;;;17.50;99.90;;;;;;5027561;28;20033;-61
2023/08/18 06:10:30;;;;;;;0.47;0.47;;;17.50;99.90;;;;;;5024163;28;20479;-61
2023/08/18 06:12:56;;;;;;;0.20;0.20;;;17.50;99.90;;;;;;5028548;28;20034;-61
2023/08/18 06:15:23;;;;;;;0.45;0.30;;;17.50;99.90;;;;;;5028890;28;20028;-61
2023/08/18 06:17:49;;;;;;;0.10;0.10;;;17.50;99.90;;;;;;5025911;28;20038;-60
2023/08/18 06:20:15;;;;;;;0.08;0.08;;;17.50;99.90;;;;;;5028157;28;20037;-60
2023/08/18 06:22:41;;;;;;;0.00;0.00;;;17.60;99.90;;;;;;5021366;28;20161;-59
2023/08/18 06:25:08;;;;;;;0.03;0.03;;;17.60;99.90;;;;;;5021867;28;20116;-59
2023/08/18 06:27:33;;;;;;;0.10;0.10;;;17.60;99.90;;;;;;5026998;28;20389;-59
2023/08/18 06:29:59;;;;;;;0.10;0.10;;;17.70;99.90;;;;;;5024330;28;20022;-59
2023/08/18 06:32:25;;;;;;;0.00;0.00;;;17.80;99.90;;;;;;5030333;28;20068;-60
2023/08/18 06:34:51;;;;;;;0.10;0.10;;;17.90;99.90;;;;;;5031955;28;20030;-61
2023/08/18 06:37:17;;;;;;;0.10;0.10;;;18.00;99.90;;;;;;5027574;28;20476;-59
2023/08/18 06:39:43;;;;;;;0.10;0.10;;;18.10;99.90;;;;;;5029318;28;20788;-61
2023/08/18 06:42:09;;;;;;;0.10;0.10;;;18.10;99.90;;;;;;5027609;28;20022;-60
2023/08/18 06:44:34;;;;;;;0.00;0.00;;;18.10;99.90;;;;;;5026655;28;20532;-60
2023/08/18 06:47:01;;;;;;;0.10;0.10;;;18.10;99.90;;;;;;5030064;28;20030;-58
2023/08/18 06:49:26;;;;;;;0.10;0.10;;;18.20;99.90;;;;;;5027011;28;20083;-59
2023/08/18 06:51:52;;;;;;;0.10;0.10;;;18.20;99.90;;;;;;5027453;28;20042;-61
2023/08/18 06:54:18;;;;;;;0.10;0.10;;;18.30;99.90;;;;;;5019060;28;20100;-60
2023/08/18 06:56:44;;;;;;;0.00;0.00;;;18.40;99.90;;;;;;5026760;28;20029;-59
2023/08/18 06:59:12;;;;;;;0.10;0.10;;;18.50;99.90;;;;;;5029621;28;20026;-59
2023/08/18 07:01:41;;;;;;;0.10;0.10;;;18.40;99.90;;;;;;5029161;28;20029;-61
2023/08/18 07:04:07;;;;;;;0.10;0.10;;;18.50;99.90;;;;;;5033767;28;20087;-59
2023/08/18 07:06:33;;;;;;;0.10;0.10;;;18.30;99.90;;;;;;5031304;28;20030;-60
2023/08/18 07:08:59;;;;;;;0.10;0.10;;;18.30;99.90;;;;;;5035531;28;20030;-60
2023/08/18 07:11:25;;;;;;;0.10;0.10;;;18.30;99.90;;;;;;5025937;28;20121;-61
2023/08/18 07:13:51;;;;;;;0.10;0.10;;;18.30;99.90;;;;;;5027842;28;20466;-60
2023/08/18 07:16:16;;;;;;;0.10;0.10;;;18.20;99.90;;;;;;5025808;28;20030;-59
2023/08/18 07:18:42;;;;;;;0.10;0.10;;;18.30;99.90;;;;;;5022855;28;20025;-61
2023/08/18 07:21:07;;;;;;;0.10;0.10;;;18.40;99.90;;;;;;5024449;28;20371;-61
2023/08/18 07:23:33;;;;;;;0.10;0.10;;;18.50;99.90;;;;;;5017084;28;20041;-60
2023/08/18 07:25:59;;;;;;;0.00;0.00;;;18.50;99.90;;;;;;5022060;28;20145;-61
2023/08/18 07:28:25;;;;;;;0.00;0.00;;;18.60;99.90;;;;;;5023072;28;20030;-60
2023/08/18 07:30:51;;;;;;;0.10;0.10;;;18.80;99.90;;;;;;5026628;28;20033;-59
2023/08/18 07:33:17;;;;;;;0.10;0.10;;;18.90;99.90;;;;;;5029166;28;20032;-58
2023/08/18 07:35:42;;;;;;;0.10;0.10;;;18.80;99.90;;;;;;5031190;28;20103;-57
2023/08/18 07:38:08;;;;;;;0.10;0.10;;;18.80;99.90;;;;;;5028936;28;20030;-60
2023/08/18 07:40:34;;;;;;;0.10;0.10;;;18.80;99.90;;;;;;5029213;28;20026;-60
2023/08/18 07:42:59;;;;;;;0.10;0.10;;;18.90;99.90;;;;;;5026946;28;20044;-58
2023/08/18 07:45:26;;;;;;;0.10;0.10;;;18.90;99.90;;;;;;5029165;28;20107;-60
2023/08/18 07:47:52;;;;;;;0.10;0.10;;;18.90;99.90;;;;;;5033075;28;20053;-60
2023/08/18 07:50:18;;;;;;;0.10;0.10;;;19.10;99.90;;;;;;5032030;28;20085;-60
2023/08/18 07:52:44;;;;;;;0.00;0.00;;;19.30;99.90;;;;;;5028589;28;20022;-61
2023/08/18 07:55:10;;;;;;;0.47;0.47;;;19.40;99.90;;;;;;5027536;28;20552;-60
2023/08/18 07:57:39;;;;;;;0.10;0.10;;;19.50;99.90;;;;;;5028235;28;20075;-59
2023/08/18 08:00:09;;;;;;;0.13;0.13;;;19.50;99.90;;;;;;5028727;28;20025;-58
2023/08/18 08:02:35;;;;;;;0.10;0.10;;;19.40;99.90;;;;;;5025442;28;20113;-60
2023/08/18 08:05:05;;;;;;;0.10;0.10;;;19.30;99.90;;;;;;5024662;28;20153;-60
2023/08/18 08:07:32;;;;;;;0.10;0.10;;;19.20;99.90;;;;;;5025960;28;20041;-60
2023/08/18 08:10:02;;;;;;;0.55;0.20;;;19.10;99.90;;;;;;5022062;28;20053;-59
2023/08/18 08:12:27;;;;;;;0.10;0.10;;;19.10;99.90;;;;;;5027169;28;20731;-59
2023/08/18 08:14:53;;;;;;;0.10;0.10;;;19.10;99.90;;;;;;5028623;28;20032;-61
2023/08/18 08:17:19;;;;;;;0.10;0.10;;;19.20;99.90;;;;;;5028658;28;20508;-61
2023/08/18 08:19:44;;;;;;;0.10;0.10;;;19.20;99.90;;;;;;5023202;28;20384;-60
2023/08/18 08:22:10;;;;;;;0.75;0.75;;;19.30;99.90;;;;;;5024040;28;20041;-60
2023/08/18 08:24:35;;;;;;;0.10;0.10;;;19.40;99.90;;;;;;5029295;28;20037;-61
2023/08/18 08:27:01;;;;;;;0.10;0.10;;;19.40;99.90;;;;;;5025324;28;20582;-60
2023/08/18 08:29:27;;;;;;;0.10;0.10;;;19.40;99.90;;;;;;5028622;28;20033;-61
2023/08/18 08:31:52;;;;;;;0.10;0.10;;;19.50;99.90;;;;;;5030347;28;20120;-60
2023/08/18 08:34:18;;;;;;;0.10;0.10;;;19.60;99.90;;;;;;5025562;28;20033;-61
2023/08/18 08:36:43;;;;;;;0.03;0.03;;;19.60;99.90;;;;;;5029754;28;20084;-62
2023/08/18 08:39:09;;;;;;;0.03;0.03;;;19.80;99.90;;;;;;5026649;28;20131;-59
2023/08/18 08:41:35;;;;;;;0.10;0.10;;;19.90;99.90;;;;;;5026197;28;20448;-62
2023/08/18 08:44:00;;;;;;;0.10;0.10;;;20.10;99.90;;;;;;5028793;28;20182;-62
2023/08/18 08:46:29;;;;;;;0.10;0.10;;;20.10;99.90;;;;;;5026396;28;20064;-59
2023/08/18 08:49:00;;;;;;;0.00;0.00;;;20.20;99.90;;;;;;5034220;28;20030;-61
2023/08/18 08:51:28;;;;;;;0.10;0.10;;;20.20;99.90;;;;;;5022669;28;20650;-61
2023/08/18 08:54:01;;;;;;;0.10;0.10;;;20.30;99.90;;;;;;5023271;28;20021;-61
2023/08/18 08:56:31;;;;;;;0.10;0.10;;;20.40;99.90;;;;;;5020127;28;20025;-61
2023/08/18 08:58:57;;;;;;;0.10;0.10;;;20.30;99.90;;;;;;5028157;28;20034;-60
2023/08/18 09:01:26;;;;;;;0.10;0.10;;;20.40;99.90;;;;;;5029864;28;20032;-60
2023/08/18 09:03:52;;;;;;;0.10;0.10;;;20.50;99.90;;;;;;5025742;28;20049;-62
2023/08/18 09:06:17;;;;;;;0.10;0.10;;;20.50;99.90;;;;;;5023507;28;20052;-61
2023/08/18 09:08:43;;;;;;;0.00;0.00;;;20.60;99.90;;;;;;5031797;28;20029;-61
2023/08/18 09:11:09;;;;;;;0.20;0.20;;;20.70;99.90;;;;;;5030824;28;20029;-61
2023/08/18 09:13:35;;;;;;;0.10;0.10;;;20.70;99.90;;;;;;5027980;28;20025;-62
2023/08/18 09:16:06;;;;;;;0.03;0.03;;;20.80;99.90;;;;;;5031427;28;20678;-61
2023/08/18 09:18:33;;;;;;;0.10;0.10;;;21.00;99.90;;;;;;5027371;28;20030;-60
2023/08/18 09:21:06;;;;;;;0.10;0.10;;;21.20;99.90;;;;;;5026007;28;20121;-59
2023/08/18 09:23:32;;;;;;;0.10;0.10;;;21.50;99.90;;;;;;5026671;28;20045;-57
2023/08/18 09:25:58;;;;;;;0.10;0.10;;;21.70;99.90;;;;;;5026477;28;20033;-59
2023/08/18 09:28:24;;;;;;;0.10;0.10;;;21.90;99.90;;;;;;5027408;28;20449;-59
2023/08/18 09:30:50;;;;;;;0.10;0.10;;;22.00;99.90;;;;;;5028150;28;20084;-58
2023/08/18 09:33:16;;;;;;;0.10;0.10;;;22.20;99.90;;;;;;5028916;28;20033;-60
2023/08/18 09:35:42;;;;;;;0.10;0.10;;;22.30;99.90;;;;;;5031290;28;20025;-59
2023/08/18 09:38:13;;;;;;;0.15;0.15;;;22.40;99.90;;;;;;5030150;28;20033;-56
2023/08/18 09:40:39;;;;;;;0.10;0.10;;;22.60;99.90;;;;;;5029394;28;20040;-60
2023/08/18 09:43:05;;;;;;;0.10;0.10;;;22.80;99.90;;;;;;5027504;28;20025;-59
2023/08/18 09:45:32;;;;;;;0.00;0.00;;;23.00;99.90;;;;;;5024974;28;20080;-63
2023/08/18 09:48:00;;;;;;;0.10;0.10;;;23.10;99.90;;;;;;5026432;28;20017;-60
2023/08/18 09:50:29;;;;;;;0.10;0.10;;;23.20;99.90;;;;;;5031153;28;20427;-60
2023/08/18 09:52:57;;;;;;;0.60;0.55;;;23.40;99.90;;;;;;5027505;28;20120;-61
2023/08/18 09:55:37;;;;;;;0.30;0.30;;;23.50;99.90;;;;;;5023114;28;20565;-61
2023/08/18 09:58:43;;;;;;;0.65;0.65;;;23.60;99.90;;;;;;5025147;28;20390;-59
2023/08/18 10:01:10;;;;;;;0.10;0.10;;;23.70;99.90;;;;;;5022381;28;20022;-61
2023/08/18 10:03:40;;;;;;;0.10;0.10;;;23.80;99.90;;;;;;5026889;28;20022;-60
2023/08/18 10:06:09;;;;;;;0.10;0.10;;;23.90;99.90;;;;;;5024143;28;20025;-60
2023/08/18 10:08:35;;;;;;;0.00;0.00;;;24.10;99.90;;;;;;5023930;28;20405;-58
2023/08/18 10:11:01;;;;;;;0.10;0.10;;;24.10;99.90;;;;;;5022126;28;20061;-61
2023/08/18 10:13:31;;;;;;;0.10;0.10;;;24.10;99.90;;;;;;5010133;28;20037;-60
2023/08/18 10:15:57;;;;;;;0.10;0.10;;;24.20;99.90;;;;;;5027062;28;20037;-62
2023/08/18 10:18:23;;;;;;;0.00;0.00;;;24.10;99.90;;;;;;5027980;28;20131;-62
2023/08/18 10:20:50;;;;;;;0.10;0.10;;;24.10;99.90;;;;;;5027893;28;20123;-60
2023/08/18 10:23:20;;;;;;;0.10;0.10;;;24.10;99.90;;;;;;5006628;28;20049;-60
2023/08/18 10:25:50;;;;;;;0.10;0.10;;;24.20;99.90;;;;;;4999263;28;20730;-60
2023/08/18 10:28:19;;;;;;;0.10;0.10;;;24.20;99.90;;;;;;5004510;28;20387;-59
2023/08/18 10:31:14;;;;;;;0.13;0.13;;;24.30;99.90;;;;;;5019389;28;20025;-60
2023/08/18 10:33:43;;;;;;;0.10;0.10;;;24.40;99.90;;;;;;5022410;28;20437;-60
2023/08/18 10:36:09;;;;;;;0.22;0.22;;;24.40;99.90;;;;;;5025255;28;20513;-61
2023/08/18 10:38:36;;;;;;;0.00;0.00;;;24.50;99.90;;;;;;5029737;28;20029;-61
2023/08/18 10:41:03;;;;;;;0.50;0.50;;;24.40;99.90;;;;;;5034228;28;20034;-59
2023/08/18 10:43:29;;;;;;;0.00;0.00;;;24.40;99.90;;;;;;5040186;28;20025;-61
2023/08/18 10:46:00;;;;;;;0.10;0.10;;;24.50;99.90;;;;;;5030090;28;20524;-61
2023/08/18 10:48:31;;;;;;;0.10;0.10;;;24.50;99.90;;;;;;5028066;28;20033;-60
2023/08/18 10:50:56;;;;;;;0.00;0.00;;;24.50;99.90;;;;;;5025609;28;20033;-59
2023/08/18 10:53:22;;;;;;;0.10;0.10;;;24.60;99.90;;;;;;5030348;28;20090;-60
2023/08/18 10:55:48;;;;;;;0.00;0.00;;;24.60;99.90;;;;;;5027014;28;20582;-61
2023/08/18 10:58:15;;;;;;;0.10;0.10;;;24.70;99.90;;;;;;5029001;28;20032;-58
2023/08/18 11:00:41;;;;;;;0.10;0.10;;;24.70;99.90;;;;;;5031070;28;20045;-62
2023/08/18 11:03:10;;;;;;;0.00;0.00;;;24.80;99.90;;;;;;5027352;28;20017;-60
2023/08/18 11:05:36;;;;;;;0.00;0.00;;;24.90;99.90;;;;;;5027633;28;20010;-61
2023/08/18 11:08:03;;;;;;;0.00;0.00;;;24.90;99.90;;;;;;5031513;28;20501;-60
2023/08/18 11:10:30;;;;;;;0.10;0.10;;;25.10;99.90;;;;;;5030892;28;20034;-59
2023/08/18 11:12:58;;;;;;;0.00;0.00;;;25.10;99.90;;;;;;5026484;28;20144;-60
2023/08/18 11:15:24;;;;;;;0.00;0.00;;;25.10;99.90;;;;;;5024269;28;20080;-61
2023/08/18 11:17:50;;;;;;;0.00;0.00;;;25.30;99.90;;;;;;5026659;28;20137;-61
2023/08/18 11:20:16;;;;;;;0.10;0.10;;;25.40;99.90;;;;;;5024505;28;20669;-60
2023/08/18 11:22:48;;;;;;;1.08;0.20;;;25.40;99.90;;;;;;5025204;28;20567;-60
2023/08/18 11:25:16;;;;;;;0.08;0.08;;;25.40;99.90;;;;;;5024491;28;20033;-59
2023/08/18 11:27:44;;;;;;;0.08;0.08;;;25.50;99.90;;;;;;5019519;28;20087;-59
2023/08/18 11:30:12;;;;;;;1.67;1.58;;;25.50;99.90;;;;;;5026431;28;21166;-61
2023/08/18 11:32:38;;;;;;;2.97;2.78;;;25.60;99.90;;;;;;5026867;28;20031;-60
2023/08/18 11:35:07;;;;;;;2.85;2.63;;;25.70;99.90;;;;;;5023526;28;20476;-60
2023/08/18 11:37:43;;;;;;;2.90;2.70;;;25.80;99.90;;;;;;5026053;28;20116;-61
2023/08/18 11:40:12;;;;;;;3.28;2.47;;;25.80;99.90;;;;;;5029671;28;20041;-61
2023/08/18 11:42:53;;;;;;;2.83;2.63;;;25.90;99.90;;;;;;5030305;28;20037;-60
2023/08/18 11:45:22;;;;;;;3.30;3.10;;;26.00;99.90;;;;;;5032323;28;20048;-61
2023/08/18 11:48:08;;;;;;;3.45;3.22;;;26.10;99.90;;;;;;5023534;28;20500;-61
2023/08/18 11:50:38;;;;;;;3.40;3.10;;;26.20;99.90;;;;;;5021126;28;20688;-59
2023/08/18 11:53:06;;;;;;;3.05;2.85;;;26.30;99.90;;;;;;5027556;28;20033;-61
2023/08/18 11:55:38;;;;;;;3.42;3.03;;;26.40;99.90;;;;;;5029057;28;20745;-59
2023/08/18 11:58:10;;;;;;;3.88;3.58;;;26.50;99.90;;;;;;5028199;28;20041;-59
2023/08/18 12:00:38;;;;;;;3.35;3.05;;;26.50;99.90;;;;;;5030238;28;20029;-60
2023/08/18 12:03:28;;;;;;;3.90;3.60;;;26.70;99.90;;;;;;5027184;28;20025;-59
2023/08/18 12:05:58;;;;;;;4.90;3.03;;;26.90;99.90;;;;;;5031572;28;20037;-60
2023/08/18 12:08:25;;;;;;;4.23;3.33;;;27.00;99.90;;;;;;5032899;28;20037;-62
2023/08/18 12:10:53;;;;;;;3.47;3.17;;;27.20;99.90;;;;;;5030040;28;20315;-60
2023/08/18 12:13:19;;;;;;;3.22;2.90;;;27.40;99.90;;;;;;5032405;28;20397;-59
2023/08/18 12:15:45;;;;;;;3.78;3.47;;;27.40;99.90;;;;;;5033671;28;20025;-62
2023/08/18 12:18:10;;;;;;;3.08;2.78;;;27.50;99.90;;;;;;5030438;28;20045;-60
2023/08/18 12:20:36;;;;;;;3.38;2.75;;;27.60;99.90;;;;;;5031928;28;20540;-59
2023/08/18 12:23:03;;;;;;;3.05;2.80;;;27.70;99.90;;;;;;5033701;28;20379;-60
2023/08/18 12:25:29;;;;;;;2.90;2.70;;;27.60;99.90;;;;;;5024229;28;20101;-61
2023/08/18 12:27:55;;;;;;;2.88;2.67;;;27.80;99.90;;;;;;5027532;28;20096;-59
2023/08/18 12:30:21;;;;;;;3.15;2.70;;;27.80;99.90;;;;;;5027102;28;20160;-60
2023/08/18 12:32:49;;;;;;;2.65;2.45;;;27.90;99.90;;;;;;5030853;28;20033;-60
2023/08/18 12:35:15;;;;;;;2.65;2.45;;;27.80;99.90;;;;;;5032348;28;20564;-59
2023/08/18 12:37:40;;;;;;;3.28;3.00;;;27.80;99.90;;;;;;5029220;28;20120;-61
2023/08/18 12:40:10;;;;;;;3.35;2.00;;;27.80;99.90;;;;;;5025822;28;20040;-59
2023/08/18 12:42:39;;;;;;;2.50;2.30;;;27.80;99.90;;;;;;5025630;28;20060;-58
2023/08/18 12:45:06;;;;;;;2.45;2.28;;;27.80;99.90;;;;;;5025701;28;20658;-59
2023/08/18 12:47:32;;;;;;;2.58;2.38;;;27.80;99.90;;;;;;5029688;28;20486;-59